sensor_id;sensor_type;location;lat;lon;timestamp;P1;durP1;ratioP1;P2;durP2;ratioP2
39322;SDS011;25036;53.638;10.134;2022-08-21T00:00:34;11.32;;;6.40;;
39322;SDS011;25036;53.638;10.134;2022-08-21T00:01:37;10.77;;;6.63;;
39322;SDS011;25036;53.638;10.134;2022-08-21T00:02:43;9.60;;;7.20;;
39322;SDS011;25036;53.638;10.134;2022-08-21T00:03:44;8.45;;;6.22;;
39322;SDS011;25036;53.638;10.134;2022-08-21T00:04:45;6.60;;;5.05;;
39322;SDS011;25036;53.638;10.134;2022-08-21T00:05:47;5.68;;;4.20;;
39322;SDS011;25036;53.638;10.134;2022-08-21T00:06:47;6.22;;;4.32;;
39322;SDS011;25036;53.638;10.134;2022-08-21T00:07:48;5.78;;;4.20;;
39322;SDS011;25036;53.638;10.134;2022-08-21T00:08:48;4.00;;;3.38;;
39322;SDS011;25036;53.638;10.134;2022-08-21T00:09:48;6.22;;;4.07;;
39322;SDS011;25036;53.638;10.134;2022-08-21T00:10:49;6.40;;;3.78;;
39322;SDS011;25036;53.638;10.134;2022-08-21T00:11:49;3.80;;;3.10;;
39322;SDS011;25036;53.638;10.134;2022-08-21T00:12:49;4.77;;;3.17;;
39322;SDS011;25036;53.638;10.134;2022-08-21T00:13:49;4.38;;;3.05;;
39322;SDS011;25036;53.638;10.134;2022-08-21T00:14:49;4.18;;;3.50;;
39322;SDS011;25036;53.638;10.134;2022-08-21T00:15:50;4.37;;;3.43;;
39322;SDS011;25036;53.638;10.134;2022-08-21T00:16:50;6.40;;;3.73;;
39322;SDS011;25036;53.638;10.134;2022-08-21T00:17:50;7.97;;;4.37;;
39322;SDS011;25036;53.638;10.134;2022-08-21T00:18:50;8.50;;;5.80;;
39322;SDS011;25036;53.638;10.134;2022-08-21T00:19:50;8.30;;;5.88;;
39322;SDS011;25036;53.638;10.134;2022-08-21T00:20:50;9.47;;;6.37;;
39322;SDS011;25036;53.638;10.134;2022-08-21T00:21:51;8.93;;;6.50;;
39322;SDS011;25036;53.638;10.134;2022-08-21T00:22:52;12.57;;;8.15;;
39322;SDS011;25036;53.638;10.134;2022-08-21T00:23:52;11.70;;;8.63;;
39322;SDS011;25036;53.638;10.134;2022-08-21T00:24:52;16.27;;;11.93;;
39322;SDS011;25036;53.638;10.134;2022-08-21T00:25:52;19.30;;;14.13;;
39322;SDS011;25036;53.638;10.134;2022-08-21T00:26:53;23.77;;;17.13;;
39322;SDS011;25036;53.638;10.134;2022-08-21T00:27:53;22.48;;;16.05;;
39322;SDS011;25036;53.638;10.134;2022-08-21T00:28:54;23.15;;;16.85;;
39322;SDS011;25036;53.638;10.134;2022-08-21T00:29:54;21.17;;;15.67;;
39322;SDS011;25036;53.638;10.134;2022-08-21T00:30:55;13.73;;;8.68;;
39322;SDS011;25036;53.638;10.134;2022-08-21T00:31:56;13.18;;;9.38;;
39322;SDS011;25036;53.638;10.134;2022-08-21T00:32:56;12.23;;;9.50;;
39322;SDS011;25036;53.638;10.134;2022-08-21T00:33:57;12.85;;;9.05;;
39322;SDS011;25036;53.638;10.134;2022-08-21T00:34:57;10.83;;;7.60;;
39322;SDS011;25036;53.638;10.134;2022-08-21T00:35:58;9.40;;;7.53;;
39322;SDS011;25036;53.638;10.134;2022-08-21T00:36:58;9.98;;;6.38;;
39322;SDS011;25036;53.638;10.134;2022-08-21T00:37:58;7.83;;;5.40;;
39322;SDS011;25036;53.638;10.134;2022-08-21T00:38:58;7.57;;;5.63;;
39322;SDS011;25036;53.638;10.134;2022-08-21T00:39:58;19.53;;;5.73;;
39322;SDS011;25036;53.638;10.134;2022-08-21T00:41:00;7.75;;;5.15;;
39322;SDS011;25036;53.638;10.134;2022-08-21T00:42:01;7.40;;;4.95;;
39322;SDS011;25036;53.638;10.134;2022-08-21T00:43:05;7.27;;;4.57;;
39322;SDS011;25036;53.638;10.134;2022-08-21T00:44:07;4.35;;;3.67;;
39322;SDS011;25036;53.638;10.134;2022-08-21T00:45:07;6.22;;;3.80;;
39322;SDS011;25036;53.638;10.134;2022-08-21T00:46:08;5.90;;;3.53;;
39322;SDS011;25036;53.638;10.134;2022-08-21T00:47:08;5.33;;;3.43;;
39322;SDS011;25036;53.638;10.134;2022-08-21T00:48:08;5.90;;;4.05;;
39322;SDS011;25036;53.638;10.134;2022-08-21T00:49:09;6.25;;;4.43;;
39322;SDS011;25036;53.638;10.134;2022-08-21T00:50:10;6.07;;;4.40;;
39322;SDS011;25036;53.638;10.134;2022-08-21T00:51:12;5.22;;;4.68;;
39322;SDS011;25036;53.638;10.134;2022-08-21T00:52:16;7.07;;;5.03;;
39322;SDS011;25036;53.638;10.134;2022-08-21T00:53:17;16.80;;;12.73;;
39322;SDS011;25036;53.638;10.134;2022-08-21T00:54:18;9.50;;;7.28;;
39322;SDS011;25036;53.638;10.134;2022-08-21T00:55:20;7.53;;;5.88;;
39322;SDS011;25036;53.638;10.134;2022-08-21T00:56:21;7.15;;;5.45;;
39322;SDS011;25036;53.638;10.134;2022-08-21T00:57:25;8.10;;;5.65;;
39322;SDS011;25036;53.638;10.134;2022-08-21T00:58:27;7.18;;;5.32;;
39322;SDS011;25036;53.638;10.134;2022-08-21T00:59:27;7.63;;;5.35;;
39322;SDS011;25036;53.638;10.134;2022-08-21T01:00:31;6.03;;;4.60;;
39322;SDS011;25036;53.638;10.134;2022-08-21T01:01:32;6.95;;;4.25;;
39322;SDS011;25036;53.638;10.134;2022-08-21T01:02:32;6.38;;;4.47;;
39322;SDS011;25036;53.638;10.134;2022-08-21T01:03:33;5.30;;;3.97;;
39322;SDS011;25036;53.638;10.134;2022-08-21T01:04:33;7.63;;;4.68;;
39322;SDS011;25036;53.638;10.134;2022-08-21T01:05:33;7.00;;;4.00;;
39322;SDS011;25036;53.638;10.134;2022-08-21T01:06:33;7.33;;;4.20;;
39322;SDS011;25036;53.638;10.134;2022-08-21T01:07:35;5.95;;;3.65;;
39322;SDS011;25036;53.638;10.134;2022-08-21T01:08:35;6.13;;;3.70;;
39322;SDS011;25036;53.638;10.134;2022-08-21T01:09:37;7.65;;;3.53;;
39322;SDS011;25036;53.638;10.134;2022-08-21T01:10:37;4.88;;;3.50;;
39322;SDS011;25036;53.638;10.134;2022-08-21T01:11:37;5.70;;;3.45;;
39322;SDS011;25036;53.638;10.134;2022-08-21T01:12:37;5.38;;;3.50;;
39322;SDS011;25036;53.638;10.134;2022-08-21T01:13:39;4.35;;;3.95;;
39322;SDS011;25036;53.638;10.134;2022-08-21T01:14:45;5.32;;;3.50;;
39322;SDS011;25036;53.638;10.134;2022-08-21T01:15:46;5.03;;;3.50;;
39322;SDS011;25036;53.638;10.134;2022-08-21T01:16:48;5.05;;;3.13;;
39322;SDS011;25036;53.638;10.134;2022-08-21T01:17:49;5.22;;;3.33;;
39322;SDS011;25036;53.638;10.134;2022-08-21T01:18:49;3.50;;;3.08;;
39322;SDS011;25036;53.638;10.134;2022-08-21T01:19:50;4.18;;;2.90;;
39322;SDS011;25036;53.638;10.134;2022-08-21T01:20:58;5.00;;;2.97;;
39322;SDS011;25036;53.638;10.134;2022-08-21T01:21:58;4.88;;;3.00;;
39322;SDS011;25036;53.638;10.134;2022-08-21T01:23:00;4.35;;;2.60;;
39322;SDS011;25036;53.638;10.134;2022-08-21T01:24:00;4.88;;;3.00;;
39322;SDS011;25036;53.638;10.134;2022-08-21T01:25:01;5.22;;;2.72;;
39322;SDS011;25036;53.638;10.134;2022-08-21T01:26:02;4.72;;;2.97;;
39322;SDS011;25036;53.638;10.134;2022-08-21T01:27:02;3.47;;;2.50;;
39322;SDS011;25036;53.638;10.134;2022-08-21T01:28:11;3.50;;;2.70;;
39322;SDS011;25036;53.638;10.134;2022-08-21T01:30:31;4.25;;;2.90;;
39322;SDS011;25036;53.638;10.134;2022-08-21T01:31:33;3.80;;;2.45;;
39322;SDS011;25036;53.638;10.134;2022-08-21T01:32:33;4.87;;;2.93;;
39322;SDS011;25036;53.638;10.134;2022-08-21T01:33:34;3.03;;;2.70;;
39322;SDS011;25036;53.638;10.134;2022-08-21T01:34:34;3.53;;;2.83;;
39322;SDS011;25036;53.638;10.134;2022-08-21T01:35:36;5.13;;;2.60;;
39322;SDS011;25036;53.638;10.134;2022-08-21T01:36:36;3.58;;;2.70;;
39322;SDS011;25036;53.638;10.134;2022-08-21T01:37:36;3.67;;;2.90;;
39322;SDS011;25036;53.638;10.134;2022-08-21T01:38:36;4.57;;;2.97;;
39322;SDS011;25036;53.638;10.134;2022-08-21T01:39:36;3.83;;;3.00;;
39322;SDS011;25036;53.638;10.134;2022-08-21T01:40:37;4.68;;;2.88;;
39322;SDS011;25036;53.638;10.134;2022-08-21T01:41:37;3.78;;;2.72;;
39322;SDS011;25036;53.638;10.134;2022-08-21T01:42:37;2.90;;;2.30;;
39322;SDS011;25036;53.638;10.134;2022-08-21T01:43:38;3.58;;;2.75;;
39322;SDS011;25036;53.638;10.134;2022-08-21T01:44:38;3.22;;;2.80;;
39322;SDS011;25036;53.638;10.134;2022-08-21T01:45:38;3.53;;;2.80;;
39322;SDS011;25036;53.638;10.134;2022-08-21T01:46:38;3.80;;;2.80;;
39322;SDS011;25036;53.638;10.134;2022-08-21T01:47:38;4.57;;;2.87;;
39322;SDS011;25036;53.638;10.134;2022-08-21T01:48:39;3.72;;;2.65;;
39322;SDS011;25036;53.638;10.134;2022-08-21T01:49:39;4.78;;;2.65;;
39322;SDS011;25036;53.638;10.134;2022-08-21T01:50:39;3.33;;;2.22;;
39322;SDS011;25036;53.638;10.134;2022-08-21T01:51:39;3.47;;;2.83;;
39322;SDS011;25036;53.638;10.134;2022-08-21T01:52:39;3.53;;;2.70;;
39322;SDS011;25036;53.638;10.134;2022-08-21T01:53:39;5.07;;;3.03;;
39322;SDS011;25036;53.638;10.134;2022-08-21T01:54:40;3.17;;;2.88;;
39322;SDS011;25036;53.638;10.134;2022-08-21T01:55:41;3.92;;;2.70;;
39322;SDS011;25036;53.638;10.134;2022-08-21T01:56:43;4.38;;;2.97;;
39322;SDS011;25036;53.638;10.134;2022-08-21T01:57:44;4.40;;;2.88;;
39322;SDS011;25036;53.638;10.134;2022-08-21T01:58:45;4.60;;;2.75;;
39322;SDS011;25036;53.638;10.134;2022-08-21T01:59:45;4.25;;;2.92;;
39322;SDS011;25036;53.638;10.134;2022-08-21T02:00:45;5.17;;;2.60;;
39322;SDS011;25036;53.638;10.134;2022-08-21T02:01:45;4.38;;;2.83;;
39322;SDS011;25036;53.638;10.134;2022-08-21T02:02:46;3.13;;;2.83;;
39322;SDS011;25036;53.638;10.134;2022-08-21T02:03:46;4.70;;;3.10;;
39322;SDS011;25036;53.638;10.134;2022-08-21T02:04:46;5.43;;;3.20;;
39322;SDS011;25036;53.638;10.134;2022-08-21T02:05:46;6.33;;;3.30;;
39322;SDS011;25036;53.638;10.134;2022-08-21T02:06:46;3.60;;;2.93;;
39322;SDS011;25036;53.638;10.134;2022-08-21T02:07:48;3.65;;;2.70;;
39322;SDS011;25036;53.638;10.134;2022-08-21T02:08:48;3.38;;;2.83;;
39322;SDS011;25036;53.638;10.134;2022-08-21T02:09:50;4.30;;;3.25;;
39322;SDS011;25036;53.638;10.134;2022-08-21T02:10:51;3.37;;;2.80;;
39322;SDS011;25036;53.638;10.134;2022-08-21T02:11:51;3.58;;;3.25;;
39322;SDS011;25036;53.638;10.134;2022-08-21T02:12:52;5.18;;;2.75;;
39322;SDS011;25036;53.638;10.134;2022-08-21T02:13:52;3.90;;;3.22;;
39322;SDS011;25036;53.638;10.134;2022-08-21T02:14:52;3.53;;;2.87;;
39322;SDS011;25036;53.638;10.134;2022-08-21T02:15:52;4.57;;;3.00;;
39322;SDS011;25036;53.638;10.134;2022-08-21T02:16:52;4.27;;;3.20;;
39322;SDS011;25036;53.638;10.134;2022-08-21T02:17:54;7.17;;;2.97;;
39322;SDS011;25036;53.638;10.134;2022-08-21T02:18:55;4.25;;;3.05;;
39322;SDS011;25036;53.638;10.134;2022-08-21T02:19:55;3.23;;;2.90;;
39322;SDS011;25036;53.638;10.134;2022-08-21T02:20:55;3.93;;;2.70;;
39322;SDS011;25036;53.638;10.134;2022-08-21T02:21:55;3.93;;;2.60;;
39322;SDS011;25036;53.638;10.134;2022-08-21T02:22:55;4.83;;;3.00;;
39322;SDS011;25036;53.638;10.134;2022-08-21T02:23:55;4.68;;;2.80;;
39322;SDS011;25036;53.638;10.134;2022-08-21T02:24:56;3.73;;;3.30;;
39322;SDS011;25036;53.638;10.134;2022-08-21T02:25:56;3.47;;;3.00;;
39322;SDS011;25036;53.638;10.134;2022-08-21T02:26:56;4.00;;;2.83;;
39322;SDS011;25036;53.638;10.134;2022-08-21T02:27:57;4.23;;;3.40;;
39322;SDS011;25036;53.638;10.134;2022-08-21T02:28:57;3.85;;;2.85;;
39322;SDS011;25036;53.638;10.134;2022-08-21T02:29:57;4.80;;;2.60;;
39322;SDS011;25036;53.638;10.134;2022-08-21T02:30:58;4.23;;;3.23;;
39322;SDS011;25036;53.638;10.134;2022-08-21T02:31:58;4.30;;;2.90;;
39322;SDS011;25036;53.638;10.134;2022-08-21T02:32:59;4.00;;;3.17;;
39322;SDS011;25036;53.638;10.134;2022-08-21T02:33:59;3.80;;;2.95;;
39322;SDS011;25036;53.638;10.134;2022-08-21T02:34:59;4.22;;;3.00;;
39322;SDS011;25036;53.638;10.134;2022-08-21T02:36:00;3.58;;;3.17;;
39322;SDS011;25036;53.638;10.134;2022-08-21T02:37:00;4.07;;;3.22;;
39322;SDS011;25036;53.638;10.134;2022-08-21T02:38:01;4.80;;;3.10;;
39322;SDS011;25036;53.638;10.134;2022-08-21T02:39:02;3.97;;;2.83;;
39322;SDS011;25036;53.638;10.134;2022-08-21T02:40:02;4.03;;;2.92;;
39322;SDS011;25036;53.638;10.134;2022-08-21T02:41:03;3.45;;;2.75;;
39322;SDS011;25036;53.638;10.134;2022-08-21T02:42:04;3.17;;;2.88;;
39322;SDS011;25036;53.638;10.134;2022-08-21T02:43:05;4.60;;;2.70;;
39322;SDS011;25036;53.638;10.134;2022-08-21T02:44:05;3.45;;;2.80;;
39322;SDS011;25036;53.638;10.134;2022-08-21T02:45:06;3.13;;;2.63;;
39322;SDS011;25036;53.638;10.134;2022-08-21T02:46:07;4.00;;;2.72;;
39322;SDS011;25036;53.638;10.134;2022-08-21T02:47:07;4.13;;;2.58;;
39322;SDS011;25036;53.638;10.134;2022-08-21T02:48:08;4.17;;;2.67;;
39322;SDS011;25036;53.638;10.134;2022-08-21T02:49:09;3.97;;;2.63;;
39322;SDS011;25036;53.638;10.134;2022-08-21T02:50:09;4.50;;;2.63;;
39322;SDS011;25036;53.638;10.134;2022-08-21T02:51:14;3.77;;;2.73;;
39322;SDS011;25036;53.638;10.134;2022-08-21T02:52:14;4.88;;;2.70;;
39322;SDS011;25036;53.638;10.134;2022-08-21T02:53:15;3.03;;;2.55;;
39322;SDS011;25036;53.638;10.134;2022-08-21T02:54:16;3.30;;;2.67;;
39322;SDS011;25036;53.638;10.134;2022-08-21T02:55:16;4.13;;;3.00;;
39322;SDS011;25036;53.638;10.134;2022-08-21T02:56:19;4.40;;;2.40;;
39322;SDS011;25036;53.638;10.134;2022-08-21T02:57:19;3.75;;;2.30;;
39322;SDS011;25036;53.638;10.134;2022-08-21T02:58:21;5.93;;;2.72;;
39322;SDS011;25036;53.638;10.134;2022-08-21T02:59:22;3.75;;;2.50;;
39322;SDS011;25036;53.638;10.134;2022-08-21T03:00:23;2.53;;;2.00;;
39322;SDS011;25036;53.638;10.134;2022-08-21T03:01:23;3.05;;;2.13;;
39322;SDS011;25036;53.638;10.134;2022-08-21T03:02:23;3.30;;;2.40;;
39322;SDS011;25036;53.638;10.134;2022-08-21T03:03:23;2.90;;;2.30;;
39322;SDS011;25036;53.638;10.134;2022-08-21T03:04:24;2.70;;;2.17;;
39322;SDS011;25036;53.638;10.134;2022-08-21T03:05:25;3.23;;;2.43;;
39322;SDS011;25036;53.638;10.134;2022-08-21T03:06:25;3.85;;;2.42;;
39322;SDS011;25036;53.638;10.134;2022-08-21T03:07:25;3.13;;;2.35;;
39322;SDS011;25036;53.638;10.134;2022-08-21T03:08:26;4.47;;;2.88;;
39322;SDS011;25036;53.638;10.134;2022-08-21T03:09:26;4.85;;;2.42;;
39322;SDS011;25036;53.638;10.134;2022-08-21T03:10:27;3.77;;;2.57;;
39322;SDS011;25036;53.638;10.134;2022-08-21T03:11:27;2.85;;;2.33;;
39322;SDS011;25036;53.638;10.134;2022-08-21T03:12:28;4.07;;;2.33;;
39322;SDS011;25036;53.638;10.134;2022-08-21T03:13:28;2.90;;;2.07;;
39322;SDS011;25036;53.638;10.134;2022-08-21T03:14:28;2.92;;;2.08;;
39322;SDS011;25036;53.638;10.134;2022-08-21T03:15:29;3.33;;;2.20;;
39322;SDS011;25036;53.638;10.134;2022-08-21T03:16:29;3.33;;;2.45;;
39322;SDS011;25036;53.638;10.134;2022-08-21T03:17:29;2.57;;;2.30;;
39322;SDS011;25036;53.638;10.134;2022-08-21T03:18:29;2.87;;;2.03;;
39322;SDS011;25036;53.638;10.134;2022-08-21T03:19:29;2.33;;;2.10;;
39322;SDS011;25036;53.638;10.134;2022-08-21T03:20:29;3.47;;;2.47;;
39322;SDS011;25036;53.638;10.134;2022-08-21T03:21:32;3.20;;;2.40;;
39322;SDS011;25036;53.638;10.134;2022-08-21T03:22:32;3.20;;;2.17;;
39322;SDS011;25036;53.638;10.134;2022-08-21T03:23:32;4.80;;;2.20;;
39322;SDS011;25036;53.638;10.134;2022-08-21T03:24:32;2.88;;;2.38;;
39322;SDS011;25036;53.638;10.134;2022-08-21T03:25:33;4.57;;;2.28;;
39322;SDS011;25036;53.638;10.134;2022-08-21T03:26:33;2.88;;;2.20;;
39322;SDS011;25036;53.638;10.134;2022-08-21T03:27:34;2.50;;;2.30;;
39322;SDS011;25036;53.638;10.134;2022-08-21T03:28:34;2.45;;;2.17;;
39322;SDS011;25036;53.638;10.134;2022-08-21T03:29:34;4.70;;;2.53;;
39322;SDS011;25036;53.638;10.134;2022-08-21T03:30:34;4.20;;;2.30;;
39322;SDS011;25036;53.638;10.134;2022-08-21T03:31:34;5.35;;;2.30;;
39322;SDS011;25036;53.638;10.134;2022-08-21T03:32:35;4.50;;;2.30;;
39322;SDS011;25036;53.638;10.134;2022-08-21T03:33:36;3.25;;;2.10;;
39322;SDS011;25036;53.638;10.134;2022-08-21T03:34:39;2.57;;;2.30;;
39322;SDS011;25036;53.638;10.134;2022-08-21T03:35:39;3.72;;;2.35;;
39322;SDS011;25036;53.638;10.134;2022-08-21T03:36:40;4.05;;;2.58;;
39322;SDS011;25036;53.638;10.134;2022-08-21T03:37:40;2.90;;;2.20;;
39322;SDS011;25036;53.638;10.134;2022-08-21T03:38:41;4.07;;;1.98;;
39322;SDS011;25036;53.638;10.134;2022-08-21T03:39:41;3.20;;;2.30;;
39322;SDS011;25036;53.638;10.134;2022-08-21T03:40:42;2.30;;;1.80;;
39322;SDS011;25036;53.638;10.134;2022-08-21T03:41:42;2.67;;;2.10;;
39322;SDS011;25036;53.638;10.134;2022-08-21T03:42:42;2.60;;;1.97;;
39322;SDS011;25036;53.638;10.134;2022-08-21T03:43:42;4.20;;;2.40;;
39322;SDS011;25036;53.638;10.134;2022-08-21T03:44:43;4.45;;;2.50;;
39322;SDS011;25036;53.638;10.134;2022-08-21T03:45:43;2.25;;;1.88;;
39322;SDS011;25036;53.638;10.134;2022-08-21T03:46:43;2.15;;;1.90;;
39322;SDS011;25036;53.638;10.134;2022-08-21T03:48:00;3.57;;;2.10;;
39322;SDS011;25036;53.638;10.134;2022-08-21T03:49:00;2.60;;;2.10;;
39322;SDS011;25036;53.638;10.134;2022-08-21T03:50:01;3.70;;;2.10;;
39322;SDS011;25036;53.638;10.134;2022-08-21T03:51:02;3.88;;;2.28;;
39322;SDS011;25036;53.638;10.134;2022-08-21T03:52:03;3.63;;;2.15;;
39322;SDS011;25036;53.638;10.134;2022-08-21T03:53:03;3.35;;;1.77;;
39322;SDS011;25036;53.638;10.134;2022-08-21T03:54:04;2.92;;;2.00;;
39322;SDS011;25036;53.638;10.134;2022-08-21T03:55:04;3.83;;;2.30;;
39322;SDS011;25036;53.638;10.134;2022-08-21T03:56:05;2.42;;;1.88;;
39322;SDS011;25036;53.638;10.134;2022-08-21T03:57:05;2.83;;;2.10;;
39322;SDS011;25036;53.638;10.134;2022-08-21T03:58:05;2.73;;;2.00;;
39322;SDS011;25036;53.638;10.134;2022-08-21T03:59:05;2.90;;;2.00;;
39322;SDS011;25036;53.638;10.134;2022-08-21T04:00:06;2.67;;;2.00;;
39322;SDS011;25036;53.638;10.134;2022-08-21T04:01:08;3.55;;;1.92;;
39322;SDS011;25036;53.638;10.134;2022-08-21T04:02:08;4.07;;;2.23;;
39322;SDS011;25036;53.638;10.134;2022-08-21T04:03:09;2.95;;;2.08;;
39322;SDS011;25036;53.638;10.134;2022-08-21T04:04:09;2.63;;;1.93;;
39322;SDS011;25036;53.638;10.134;2022-08-21T04:05:09;2.40;;;2.00;;
39322;SDS011;25036;53.638;10.134;2022-08-21T04:06:10;1.95;;;1.65;;
39322;SDS011;25036;53.638;10.134;2022-08-21T04:07:10;3.50;;;1.63;;
39322;SDS011;25036;53.638;10.134;2022-08-21T04:08:10;2.30;;;1.70;;
39322;SDS011;25036;53.638;10.134;2022-08-21T04:09:11;2.38;;;1.60;;
39322;SDS011;25036;53.638;10.134;2022-08-21T04:10:11;3.10;;;1.92;;
39322;SDS011;25036;53.638;10.134;2022-08-21T04:11:11;3.30;;;1.67;;
39322;SDS011;25036;53.638;10.134;2022-08-21T04:12:12;2.42;;;1.73;;
39322;SDS011;25036;53.638;10.134;2022-08-21T04:13:12;2.65;;;2.03;;
39322;SDS011;25036;53.638;10.134;2022-08-21T04:14:13;3.22;;;1.85;;
39322;SDS011;25036;53.638;10.134;2022-08-21T04:15:14;2.75;;;1.92;;
39322;SDS011;25036;53.638;10.134;2022-08-21T04:16:14;2.95;;;1.65;;
39322;SDS011;25036;53.638;10.134;2022-08-21T04:17:14;3.10;;;1.87;;
39322;SDS011;25036;53.638;10.134;2022-08-21T04:18:15;2.93;;;1.83;;
39322;SDS011;25036;53.638;10.134;2022-08-21T04:19:15;2.95;;;1.67;;
39322;SDS011;25036;53.638;10.134;2022-08-21T04:20:16;2.83;;;1.98;;
39322;SDS011;25036;53.638;10.134;2022-08-21T04:21:16;3.05;;;1.98;;
39322;SDS011;25036;53.638;10.134;2022-08-21T04:22:16;2.97;;;1.65;;
39322;SDS011;25036;53.638;10.134;2022-08-21T04:23:20;4.17;;;2.10;;
39322;SDS011;25036;53.638;10.134;2022-08-21T04:24:21;2.45;;;1.90;;
39322;SDS011;25036;53.638;10.134;2022-08-21T04:25:21;3.00;;;2.00;;
39322;SDS011;25036;53.638;10.134;2022-08-21T04:26:22;2.53;;;2.00;;
39322;SDS011;25036;53.638;10.134;2022-08-21T04:27:22;2.75;;;1.52;;
39322;SDS011;25036;53.638;10.134;2022-08-21T04:28:23;2.47;;;1.80;;
39322;SDS011;25036;53.638;10.134;2022-08-21T04:29:24;2.33;;;2.00;;
39322;SDS011;25036;53.638;10.134;2022-08-21T04:30:24;2.90;;;2.20;;
39322;SDS011;25036;53.638;10.134;2022-08-21T04:31:25;2.08;;;1.60;;
39322;SDS011;25036;53.638;10.134;2022-08-21T04:32:25;2.30;;;1.73;;
39322;SDS011;25036;53.638;10.134;2022-08-21T04:33:25;3.63;;;1.73;;
39322;SDS011;25036;53.638;10.134;2022-08-21T04:34:25;2.10;;;1.60;;
39322;SDS011;25036;53.638;10.134;2022-08-21T04:35:26;2.50;;;2.23;;
39322;SDS011;25036;53.638;10.134;2022-08-21T04:36:27;2.70;;;1.83;;
39322;SDS011;25036;53.638;10.134;2022-08-21T04:37:27;2.60;;;1.80;;
39322;SDS011;25036;53.638;10.134;2022-08-21T04:38:27;3.57;;;1.50;;
39322;SDS011;25036;53.638;10.134;2022-08-21T04:39:27;2.92;;;1.80;;
39322;SDS011;25036;53.638;10.134;2022-08-21T04:40:28;1.70;;;1.60;;
39322;SDS011;25036;53.638;10.134;2022-08-21T04:41:28;2.70;;;1.60;;
39322;SDS011;25036;53.638;10.134;2022-08-21T04:42:29;1.70;;;1.60;;
39322;SDS011;25036;53.638;10.134;2022-08-21T04:43:29;2.33;;;1.85;;
39322;SDS011;25036;53.638;10.134;2022-08-21T04:44:29;3.30;;;1.63;;
39322;SDS011;25036;53.638;10.134;2022-08-21T04:45:34;2.63;;;2.00;;
39322;SDS011;25036;53.638;10.134;2022-08-21T04:46:34;3.45;;;2.08;;
39322;SDS011;25036;53.638;10.134;2022-08-21T04:47:34;1.87;;;1.43;;
39322;SDS011;25036;53.638;10.134;2022-08-21T04:48:34;2.27;;;1.90;;
39322;SDS011;25036;53.638;10.134;2022-08-21T04:49:35;2.73;;;1.63;;
39322;SDS011;25036;53.638;10.134;2022-08-21T04:51:35;2.85;;;2.20;;
39322;SDS011;25036;53.638;10.134;2022-08-21T04:52:37;1.40;;;1.30;;
39322;SDS011;25036;53.638;10.134;2022-08-21T04:54:38;4.67;;;1.93;;
39322;SDS011;25036;53.638;10.134;2022-08-21T04:55:38;2.55;;;1.58;;
39322;SDS011;25036;53.638;10.134;2022-08-21T04:56:47;3.38;;;1.90;;
39322;SDS011;25036;53.638;10.134;2022-08-21T04:57:48;1.60;;;1.30;;
39322;SDS011;25036;53.638;10.134;2022-08-21T04:58:50;2.33;;;1.48;;
39322;SDS011;25036;53.638;10.134;2022-08-21T04:59:52;3.22;;;1.95;;
39322;SDS011;25036;53.638;10.134;2022-08-21T05:00:53;3.03;;;1.55;;
39322;SDS011;25036;53.638;10.134;2022-08-21T05:01:53;3.78;;;1.75;;
39322;SDS011;25036;53.638;10.134;2022-08-21T05:02:56;2.30;;;1.80;;
39322;SDS011;25036;53.638;10.134;2022-08-21T05:03:59;2.72;;;1.60;;
39322;SDS011;25036;53.638;10.134;2022-08-21T05:04:59;1.85;;;1.52;;
39322;SDS011;25036;53.638;10.134;2022-08-21T05:05:59;4.65;;;2.05;;
39322;SDS011;25036;53.638;10.134;2022-08-21T05:07:02;2.38;;;1.67;;
39322;SDS011;25036;53.638;10.134;2022-08-21T05:08:03;2.03;;;1.77;;
39322;SDS011;25036;53.638;10.134;2022-08-21T05:09:05;2.08;;;1.77;;
39322;SDS011;25036;53.638;10.134;2022-08-21T05:10:05;3.03;;;1.98;;
39322;SDS011;25036;53.638;10.134;2022-08-21T05:11:07;2.03;;;1.60;;
39322;SDS011;25036;53.638;10.134;2022-08-21T05:12:07;2.60;;;1.77;;
39322;SDS011;25036;53.638;10.134;2022-08-21T05:13:08;3.85;;;1.60;;
39322;SDS011;25036;53.638;10.134;2022-08-21T05:14:09;4.57;;;1.50;;
39322;SDS011;25036;53.638;10.134;2022-08-21T05:15:10;2.03;;;1.60;;
39322;SDS011;25036;53.638;10.134;2022-08-21T05:16:11;2.63;;;1.80;;
39322;SDS011;25036;53.638;10.134;2022-08-21T05:17:12;2.90;;;1.70;;
39322;SDS011;25036;53.638;10.134;2022-08-21T05:18:12;4.03;;;1.80;;
39322;SDS011;25036;53.638;10.134;2022-08-21T05:19:12;2.67;;;1.60;;
39322;SDS011;25036;53.638;10.134;2022-08-21T05:20:12;1.95;;;1.58;;
39322;SDS011;25036;53.638;10.134;2022-08-21T05:21:13;2.35;;;1.63;;
39322;SDS011;25036;53.638;10.134;2022-08-21T05:22:18;2.70;;;1.80;;
39322;SDS011;25036;53.638;10.134;2022-08-21T05:23:18;2.95;;;1.70;;
39322;SDS011;25036;53.638;10.134;2022-08-21T05:24:19;3.17;;;1.73;;
39322;SDS011;25036;53.638;10.134;2022-08-21T05:25:19;2.40;;;1.42;;
39322;SDS011;25036;53.638;10.134;2022-08-21T05:26:20;3.53;;;2.00;;
39322;SDS011;25036;53.638;10.134;2022-08-21T05:27:20;2.37;;;1.77;;
39322;SDS011;25036;53.638;10.134;2022-08-21T05:28:20;4.37;;;1.57;;
39322;SDS011;25036;53.638;10.134;2022-08-21T05:29:20;4.00;;;1.77;;
39322;SDS011;25036;53.638;10.134;2022-08-21T05:30:20;2.83;;;1.60;;
39322;SDS011;25036;53.638;10.134;2022-08-21T05:31:20;3.23;;;1.73;;
39322;SDS011;25036;53.638;10.134;2022-08-21T05:32:21;2.07;;;1.50;;
39322;SDS011;25036;53.638;10.134;2022-08-21T05:33:21;3.43;;;2.23;;
39322;SDS011;25036;53.638;10.134;2022-08-21T05:34:22;3.43;;;1.80;;
39322;SDS011;25036;53.638;10.134;2022-08-21T05:35:23;3.05;;;1.90;;
39322;SDS011;25036;53.638;10.134;2022-08-21T05:36:23;3.90;;;1.88;;
39322;SDS011;25036;53.638;10.134;2022-08-21T05:37:24;2.92;;;2.03;;
39322;SDS011;25036;53.638;10.134;2022-08-21T05:38:25;2.70;;;1.80;;
39322;SDS011;25036;53.638;10.134;2022-08-21T05:39:27;2.75;;;1.58;;
39322;SDS011;25036;53.638;10.134;2022-08-21T05:40:27;3.00;;;1.60;;
39322;SDS011;25036;53.638;10.134;2022-08-21T05:41:27;3.05;;;1.58;;
39322;SDS011;25036;53.638;10.134;2022-08-21T05:42:27;3.20;;;1.70;;
39322;SDS011;25036;53.638;10.134;2022-08-21T05:43:28;5.70;;;1.70;;
39322;SDS011;25036;53.638;10.134;2022-08-21T05:44:28;4.43;;;1.70;;
39322;SDS011;25036;53.638;10.134;2022-08-21T05:45:30;3.03;;;1.73;;
39322;SDS011;25036;53.638;10.134;2022-08-21T05:46:30;4.00;;;1.55;;
39322;SDS011;25036;53.638;10.134;2022-08-21T05:47:30;2.70;;;1.50;;
39322;SDS011;25036;53.638;10.134;2022-08-21T05:48:33;3.80;;;1.90;;
39322;SDS011;25036;53.638;10.134;2022-08-21T05:49:33;3.58;;;1.70;;
39322;SDS011;25036;53.638;10.134;2022-08-21T05:50:34;3.07;;;2.13;;
39322;SDS011;25036;53.638;10.134;2022-08-21T05:51:34;4.45;;;1.75;;
39322;SDS011;25036;53.638;10.134;2022-08-21T05:52:35;3.97;;;1.67;;
39322;SDS011;25036;53.638;10.134;2022-08-21T05:53:35;4.07;;;1.87;;
39322;SDS011;25036;53.638;10.134;2022-08-21T05:54:36;5.05;;;2.10;;
39322;SDS011;25036;53.638;10.134;2022-08-21T05:55:37;4.13;;;2.08;;
39322;SDS011;25036;53.638;10.134;2022-08-21T05:56:37;5.47;;;1.70;;
39322;SDS011;25036;53.638;10.134;2022-08-21T05:57:37;2.67;;;1.60;;
39322;SDS011;25036;53.638;10.134;2022-08-21T05:58:40;2.85;;;1.55;;
39322;SDS011;25036;53.638;10.134;2022-08-21T05:59:41;4.80;;;1.45;;
39322;SDS011;25036;53.638;10.134;2022-08-21T06:00:42;5.15;;;1.67;;
39322;SDS011;25036;53.638;10.134;2022-08-21T06:01:42;4.75;;;1.80;;
39322;SDS011;25036;53.638;10.134;2022-08-21T06:02:42;4.00;;;1.90;;
39322;SDS011;25036;53.638;10.134;2022-08-21T06:03:43;3.13;;;1.70;;